sensor_id;sensor_type;location;lat;lon;timestamp;P1;durP1;ratioP1;P2;durP2;ratioP2
36321;SDS011;23564;48.290;11.460;2023-12-20T00:02:16;4.85;;;2.63;;
36321;SDS011;23564;48.290;11.460;2023-12-20T00:04:41;4.13;;;2.38;;
36321;SDS011;23564;48.290;11.460;2023-12-20T00:07:07;4.43;;;2.53;;
36321;SDS011;23564;48.290;11.460;2023-12-20T00:09:32;4.03;;;2.38;;
36321;SDS011;23564;48.290;11.460;2023-12-20T00:11:58;4.10;;;2.47;;
36321;SDS011;23564;48.290;11.460;2023-12-20T00:14:23;8.38;;;2.92;;
36321;SDS011;23564;48.290;11.460;2023-12-20T00:16:49;4.60;;;2.65;;
36321;SDS011;23564;48.290;11.460;2023-12-20T00:19:15;6.13;;;2.88;;
36321;SDS011;23564;48.290;11.460;2023-12-20T00:21:40;4.53;;;2.78;;
36321;SDS011;23564;48.290;11.460;2023-12-20T00:24:06;6.35;;;2.75;;
36321;SDS011;23564;48.290;11.460;2023-12-20T00:26:31;4.13;;;2.63;;
36321;SDS011;23564;48.290;11.460;2023-12-20T00:28:57;3.92;;;2.60;;
36321;SDS011;23564;48.290;11.460;2023-12-20T00:31:22;5.13;;;2.30;;
36321;SDS011;23564;48.290;11.460;2023-12-20T00:33:48;3.83;;;2.40;;
36321;SDS011;23564;48.290;11.460;2023-12-20T00:36:13;7.10;;;2.65;;
36321;SDS011;23564;48.290;11.460;2023-12-20T00:38:39;5.72;;;2.85;;
36321;SDS011;23564;48.290;11.460;2023-12-20T00:41:05;5.10;;;2.95;;
36321;SDS011;23564;48.290;11.460;2023-12-20T00:43:30;4.97;;;2.50;;
36321;SDS011;23564;48.290;11.460;2023-12-20T00:45:56;4.10;;;2.55;;
36321;SDS011;23564;48.290;11.460;2023-12-20T00:48:22;6.75;;;2.75;;
36321;SDS011;23564;48.290;11.460;2023-12-20T00:50:47;5.43;;;2.90;;
36321;SDS011;23564;48.290;11.460;2023-12-20T00:53:13;5.65;;;3.00;;
36321;SDS011;23564;48.290;11.460;2023-12-20T00:55:38;5.80;;;2.50;;
36321;SDS011;23564;48.290;11.460;2023-12-20T00:58:04;4.95;;;2.60;;
36321;SDS011;23564;48.290;11.460;2023-12-20T01:00:29;4.50;;;2.50;;
36321;SDS011;23564;48.290;11.460;2023-12-20T01:02:55;4.85;;;2.83;;
36321;SDS011;23564;48.290;11.460;2023-12-20T01:05:21;5.32;;;2.60;;
36321;SDS011;23564;48.290;11.460;2023-12-20T01:07:48;5.00;;;2.60;;
36321;SDS011;23564;48.290;11.460;2023-12-20T01:10:14;4.20;;;2.50;;
36321;SDS011;23564;48.290;11.460;2023-12-20T01:12:40;4.63;;;2.50;;
36321;SDS011;23564;48.290;11.460;2023-12-20T01:15:05;5.25;;;2.47;;
36321;SDS011;23564;48.290;11.460;2023-12-20T01:17:31;4.25;;;2.00;;
36321;SDS011;23564;48.290;11.460;2023-12-20T01:19:57;3.67;;;2.05;;
36321;SDS011;23564;48.290;11.460;2023-12-20T01:22:23;3.55;;;2.13;;
36321;SDS011;23564;48.290;11.460;2023-12-20T01:24:48;4.40;;;2.42;;
36321;SDS011;23564;48.290;11.460;2023-12-20T01:27:14;3.55;;;2.60;;
36321;SDS011;23564;48.290;11.460;2023-12-20T01:29:40;3.70;;;2.08;;
36321;SDS011;23564;48.290;11.460;2023-12-20T01:32:05;4.68;;;1.90;;
36321;SDS011;23564;48.290;11.460;2023-12-20T01:34:31;3.17;;;1.92;;
36321;SDS011;23564;48.290;11.460;2023-12-20T01:36:57;2.38;;;1.50;;
36321;SDS011;23564;48.290;11.460;2023-12-20T01:39:22;2.45;;;1.65;;
36321;SDS011;23564;48.290;11.460;2023-12-20T01:41:48;3.65;;;2.03;;
36321;SDS011;23564;48.290;11.460;2023-12-20T01:44:14;3.55;;;1.90;;
36321;SDS011;23564;48.290;11.460;2023-12-20T01:46:39;2.88;;;1.80;;
36321;SDS011;23564;48.290;11.460;2023-12-20T01:49:06;3.85;;;1.70;;
36321;SDS011;23564;48.290;11.460;2023-12-20T01:51:32;2.17;;;1.58;;
36321;SDS011;23564;48.290;11.460;2023-12-20T01:53:58;2.25;;;1.40;;
36321;SDS011;23564;48.290;11.460;2023-12-20T01:56:25;4.30;;;1.63;;
36321;SDS011;23564;48.290;11.460;2023-12-20T01:58:53;2.30;;;1.40;;
36321;SDS011;23564;48.290;11.460;2023-12-20T02:01:20;3.03;;;1.50;;
36321;SDS011;23564;48.290;11.460;2023-12-20T02:03:46;3.70;;;1.83;;
36321;SDS011;23564;48.290;11.460;2023-12-20T02:06:12;2.28;;;1.40;;
36321;SDS011;23564;48.290;11.460;2023-12-20T02:08:38;2.67;;;1.70;;
36321;SDS011;23564;48.290;11.460;2023-12-20T02:11:04;4.28;;;1.80;;
36321;SDS011;23564;48.290;11.460;2023-12-20T02:13:30;2.88;;;1.67;;
36321;SDS011;23564;48.290;11.460;2023-12-20T02:15:56;2.83;;;1.65;;
36321;SDS011;23564;48.290;11.460;2023-12-20T02:18:21;2.83;;;1.58;;
36321;SDS011;23564;48.290;11.460;2023-12-20T02:20:47;4.20;;;2.00;;
36321;SDS011;23564;48.290;11.460;2023-12-20T02:23:13;2.58;;;1.70;;
36321;SDS011;23564;48.290;11.460;2023-12-20T02:25:38;3.05;;;1.73;;
36321;SDS011;23564;48.290;11.460;2023-12-20T02:28:04;6.32;;;1.58;;
36321;SDS011;23564;48.290;11.460;2023-12-20T02:30:30;2.97;;;1.83;;
36321;SDS011;23564;48.290;11.460;2023-12-20T02:32:56;2.25;;;1.33;;
36321;SDS011;23564;48.290;11.460;2023-12-20T02:35:22;3.03;;;1.65;;
36321;SDS011;23564;48.290;11.460;2023-12-20T02:37:47;2.25;;;1.70;;
36321;SDS011;23564;48.290;11.460;2023-12-20T02:40:13;3.00;;;1.70;;
36321;SDS011;23564;48.290;11.460;2023-12-20T02:42:39;2.38;;;1.60;;
36321;SDS011;23564;48.290;11.460;2023-12-20T02:45:04;3.20;;;1.67;;
36321;SDS011;23564;48.290;11.460;2023-12-20T02:47:30;2.65;;;1.50;;
36321;SDS011;23564;48.290;11.460;2023-12-20T02:49:56;3.05;;;1.50;;
36321;SDS011;23564;48.290;11.460;2023-12-20T02:52:22;2.45;;;1.45;;
36321;SDS011;23564;48.290;11.460;2023-12-20T02:54:49;2.38;;;1.38;;
36321;SDS011;23564;48.290;11.460;2023-12-20T02:57:14;1.90;;;1.23;;
36321;SDS011;23564;48.290;11.460;2023-12-20T02:59:40;3.25;;;1.85;;
36321;SDS011;23564;48.290;11.460;2023-12-20T03:02:05;2.17;;;1.50;;
36321;SDS011;23564;48.290;11.460;2023-12-20T03:04:31;1.85;;;1.00;;
36321;SDS011;23564;48.290;11.460;2023-12-20T03:06:56;2.08;;;1.10;;
36321;SDS011;23564;48.290;11.460;2023-12-20T03:09:22;2.10;;;0.98;;
36321;SDS011;23564;48.290;11.460;2023-12-20T03:11:47;1.25;;;1.15;;
36321;SDS011;23564;48.290;11.460;2023-12-20T03:14:13;1.27;;;0.80;;
36321;SDS011;23564;48.290;11.460;2023-12-20T03:16:39;1.83;;;1.05;;
36321;SDS011;23564;48.290;11.460;2023-12-20T03:19:04;1.88;;;1.00;;
36321;SDS011;23564;48.290;11.460;2023-12-20T03:21:30;2.47;;;1.30;;
36321;SDS011;23564;48.290;11.460;2023-12-20T03:23:55;1.65;;;0.90;;
36321;SDS011;23564;48.290;11.460;2023-12-20T03:26:21;2.33;;;1.15;;
36321;SDS011;23564;48.290;11.460;2023-12-20T03:28:48;1.90;;;1.20;;
36321;SDS011;23564;48.290;11.460;2023-12-20T03:31:14;1.95;;;1.23;;
36321;SDS011;23564;48.290;11.460;2023-12-20T03:33:39;3.78;;;1.35;;
36321;SDS011;23564;48.290;11.460;2023-12-20T03:36:05;3.28;;;1.33;;
36321;SDS011;23564;48.290;11.460;2023-12-20T03:38:31;1.50;;;0.90;;
36321;SDS011;23564;48.290;11.460;2023-12-20T03:40:56;2.65;;;1.50;;
36321;SDS011;23564;48.290;11.460;2023-12-20T03:43:22;2.25;;;1.27;;
36321;SDS011;23564;48.290;11.460;2023-12-20T03:45:47;3.35;;;1.20;;
36321;SDS011;23564;48.290;11.460;2023-12-20T03:48:13;1.60;;;1.10;;
36321;SDS011;23564;48.290;11.460;2023-12-20T03:50:38;1.70;;;1.30;;
36321;SDS011;23564;48.290;11.460;2023-12-20T03:53:04;1.50;;;1.30;;
36321;SDS011;23564;48.290;11.460;2023-12-20T03:55:29;2.20;;;1.48;;
36321;SDS011;23564;48.290;11.460;2023-12-20T03:57:55;2.38;;;1.60;;
36321;SDS011;23564;48.290;11.460;2023-12-20T04:00:20;2.20;;;1.60;;
36321;SDS011;23564;48.290;11.460;2023-12-20T04:02:46;2.95;;;1.80;;
36321;SDS011;23564;48.290;11.460;2023-12-20T04:05:11;2.65;;;1.60;;
36321;SDS011;23564;48.290;11.460;2023-12-20T04:07:37;2.90;;;1.45;;
36321;SDS011;23564;48.290;11.460;2023-12-20T04:10:03;3.13;;;1.67;;
36321;SDS011;23564;48.290;11.460;2023-12-20T04:12:29;1.83;;;1.40;;
36321;SDS011;23564;48.290;11.460;2023-12-20T04:14:56;2.33;;;1.55;;
36321;SDS011;23564;48.290;11.460;2023-12-20T04:17:21;2.15;;;1.52;;
36321;SDS011;23564;48.290;11.460;2023-12-20T04:19:50;2.22;;;1.80;;
36321;SDS011;23564;48.290;11.460;2023-12-20T04:22:17;3.05;;;1.88;;
36321;SDS011;23564;48.290;11.460;2023-12-20T04:24:43;2.83;;;1.77;;
36321;SDS011;23564;48.290;11.460;2023-12-20T04:27:09;4.20;;;2.20;;
36321;SDS011;23564;48.290;11.460;2023-12-20T04:29:35;3.20;;;1.80;;
36321;SDS011;23564;48.290;11.460;2023-12-20T04:32:00;5.93;;;2.20;;
36321;SDS011;23564;48.290;11.460;2023-12-20T04:34:26;5.70;;;2.92;;
36321;SDS011;23564;48.290;11.460;2023-12-20T04:36:52;5.30;;;2.60;;
36321;SDS011;23564;48.290;11.460;2023-12-20T04:39:18;4.13;;;2.47;;
36321;SDS011;23564;48.290;11.460;2023-12-20T04:41:43;5.20;;;2.35;;
36321;SDS011;23564;48.290;11.460;2023-12-20T04:44:09;3.65;;;2.00;;
36321;SDS011;23564;48.290;11.460;2023-12-20T04:46:34;6.35;;;2.45;;
36321;SDS011;23564;48.290;11.460;2023-12-20T04:49:00;7.60;;;2.70;;
36321;SDS011;23564;48.290;11.460;2023-12-20T04:51:26;5.13;;;2.38;;
36321;SDS011;23564;48.290;11.460;2023-12-20T04:53:52;4.25;;;2.85;;
36321;SDS011;23564;48.290;11.460;2023-12-20T04:56:17;3.75;;;2.33;;
36321;SDS011;23564;48.290;11.460;2023-12-20T04:58:43;5.25;;;3.10;;
36321;SDS011;23564;48.290;11.460;2023-12-20T05:01:08;4.88;;;2.90;;
36321;SDS011;23564;48.290;11.460;2023-12-20T05:03:35;5.03;;;2.97;;
36321;SDS011;23564;48.290;11.460;2023-12-20T05:06:00;5.55;;;3.20;;
36321;SDS011;23564;48.290;11.460;2023-12-20T05:08:26;5.18;;;3.38;;
36321;SDS011;23564;48.290;11.460;2023-12-20T05:10:53;5.00;;;3.35;;
36321;SDS011;23564;48.290;11.460;2023-12-20T05:13:19;5.72;;;3.35;;
36321;SDS011;23564;48.290;11.460;2023-12-20T05:15:45;7.05;;;3.42;;
36321;SDS011;23564;48.290;11.460;2023-12-20T05:18:11;6.95;;;3.25;;
36321;SDS011;23564;48.290;11.460;2023-12-20T05:20:37;4.93;;;3.63;;
36321;SDS011;23564;48.290;11.460;2023-12-20T05:23:03;5.72;;;3.55;;
36321;SDS011;23564;48.290;11.460;2023-12-20T05:25:29;6.68;;;3.92;;
36321;SDS011;23564;48.290;11.460;2023-12-20T05:27:54;5.18;;;3.63;;
36321;SDS011;23564;48.290;11.460;2023-12-20T05:30:21;7.10;;;4.03;;
36321;SDS011;23564;48.290;11.460;2023-12-20T05:32:46;7.45;;;3.88;;
36321;SDS011;23564;48.290;11.460;2023-12-20T05:35:12;7.35;;;4.25;;
36321;SDS011;23564;48.290;11.460;2023-12-20T05:37:38;8.10;;;3.75;;
36321;SDS011;23564;48.290;11.460;2023-12-20T05:40:04;6.45;;;3.92;;
36321;SDS011;23564;48.290;11.460;2023-12-20T05:42:30;7.35;;;3.72;;
36321;SDS011;23564;48.290;11.460;2023-12-20T05:44:55;6.43;;;4.18;;
36321;SDS011;23564;48.290;11.460;2023-12-20T05:47:21;6.47;;;4.43;;
36321;SDS011;23564;48.290;11.460;2023-12-20T05:49:46;7.05;;;4.13;;
36321;SDS011;23564;48.290;11.460;2023-12-20T05:52:12;6.57;;;4.40;;
36321;SDS011;23564;48.290;11.460;2023-12-20T05:54:37;6.30;;;3.85;;
36321;SDS011;23564;48.290;11.460;2023-12-20T05:57:03;8.88;;;4.97;;
36321;SDS011;23564;48.290;11.460;2023-12-20T05:59:29;6.25;;;3.60;;
36321;SDS011;23564;48.290;11.460;2023-12-20T06:01:54;6.60;;;4.30;;
36321;SDS011;23564;48.290;11.460;2023-12-20T06:04:20;6.25;;;4.30;;
36321;SDS011;23564;48.290;11.460;2023-12-20T06:06:45;7.20;;;4.10;;
36321;SDS011;23564;48.290;11.460;2023-12-20T06:09:11;8.05;;;4.18;;
36321;SDS011;23564;48.290;11.460;2023-12-20T06:11:37;7.20;;;4.32;;
36321;SDS011;23564;48.290;11.460;2023-12-20T06:14:03;5.80;;;3.83;;
36321;SDS011;23564;48.290;11.460;2023-12-20T06:16:28;4.95;;;3.50;;
36321;SDS011;23564;48.290;11.460;2023-12-20T06:18:54;7.75;;;3.38;;
36321;SDS011;23564;48.290;11.460;2023-12-20T06:21:19;7.55;;;4.05;;
36321;SDS011;23564;48.290;11.460;2023-12-20T06:23:45;6.15;;;3.65;;
36321;SDS011;23564;48.290;11.460;2023-12-20T06:26:10;5.43;;;3.50;;
36321;SDS011;23564;48.290;11.460;2023-12-20T06:28:36;7.82;;;3.40;;
36321;SDS011;23564;48.290;11.460;2023-12-20T06:31:01;5.80;;;3.30;;
36321;SDS011;23564;48.290;11.460;2023-12-20T06:33:28;7.03;;;3.90;;
36321;SDS011;23564;48.290;11.460;2023-12-20T06:35:54;5.93;;;3.72;;
36321;SDS011;23564;48.290;11.460;2023-12-20T06:38:20;4.82;;;3.22;;
36321;SDS011;23564;48.290;11.460;2023-12-20T06:40:45;5.68;;;3.30;;
36321;SDS011;23564;48.290;11.460;2023-12-20T06:43:11;6.13;;;3.80;;
36321;SDS011;23564;48.290;11.460;2023-12-20T06:45:38;8.20;;;4.53;;
36321;SDS011;23564;48.290;11.460;2023-12-20T06:48:04;16.50;;;9.40;;
36321;SDS011;23564;48.290;11.460;2023-12-20T06:50:30;8.93;;;5.68;;
36321;SDS011;23564;48.290;11.460;2023-12-20T06:52:55;7.72;;;4.30;;
36321;SDS011;23564;48.290;11.460;2023-12-20T06:55:21;7.82;;;4.55;;
36321;SDS011;23564;48.290;11.460;2023-12-20T06:57:48;8.13;;;4.57;;
36321;SDS011;23564;48.290;11.460;2023-12-20T07:00:13;7.70;;;4.30;;
36321;SDS011;23564;48.290;11.460;2023-12-20T07:02:39;6.80;;;4.90;;
36321;SDS011;23564;48.290;11.460;2023-12-20T07:05:05;6.63;;;4.15;;
36321;SDS011;23564;48.290;11.460;2023-12-20T07:07:31;7.03;;;4.53;;
36321;SDS011;23564;48.290;11.460;2023-12-20T07:09:57;7.60;;;4.35;;
36321;SDS011;23564;48.290;11.460;2023-12-20T07:12:22;7.20;;;4.20;;
36321;SDS011;23564;48.290;11.460;2023-12-20T07:14:48;8.15;;;5.10;;
36321;SDS011;23564;48.290;11.460;2023-12-20T07:17:13;8.23;;;4.70;;
36321;SDS011;23564;48.290;11.460;2023-12-20T07:19:40;7.97;;;4.80;;
36321;SDS011;23564;48.290;11.460;2023-12-20T07:22:06;8.00;;;4.47;;
36321;SDS011;23564;48.290;11.460;2023-12-20T07:24:32;7.80;;;4.63;;
36321;SDS011;23564;48.290;11.460;2023-12-20T07:27:01;11.40;;;5.60;;
36321;SDS011;23564;48.290;11.460;2023-12-20T07:29:27;7.32;;;4.05;;
36321;SDS011;23564;48.290;11.460;2023-12-20T07:31:53;6.97;;;4.40;;
36321;SDS011;23564;48.290;11.460;2023-12-20T07:34:19;6.90;;;4.25;;
36321;SDS011;23564;48.290;11.460;2023-12-20T07:36:45;6.95;;;4.40;;
36321;SDS011;23564;48.290;11.460;2023-12-20T07:39:12;4.93;;;3.42;;
36321;SDS011;23564;48.290;11.460;2023-12-20T07:41:37;5.63;;;3.63;;
36321;SDS011;23564;48.290;11.460;2023-12-20T07:44:04;6.82;;;3.75;;
36321;SDS011;23564;48.290;11.460;2023-12-20T07:46:30;6.68;;;4.00;;
36321;SDS011;23564;48.290;11.460;2023-12-20T07:48:55;5.35;;;3.55;;
36321;SDS011;23564;48.290;11.460;2023-12-20T07:51:21;5.38;;;3.15;;
36321;SDS011;23564;48.290;11.460;2023-12-20T07:53:47;6.35;;;2.78;;
36321;SDS011;23564;48.290;11.460;2023-12-20T07:56:19;4.18;;;2.58;;
36321;SDS011;23564;48.290;11.460;2023-12-20T07:58:45;6.35;;;3.30;;
36321;SDS011;23564;48.290;11.460;2023-12-20T08:01:11;3.67;;;2.50;;
36321;SDS011;23564;48.290;11.460;2023-12-20T08:03:37;7.53;;;3.03;;
36321;SDS011;23564;48.290;11.460;2023-12-20T08:06:04;6.18;;;2.90;;
36321;SDS011;23564;48.290;11.460;2023-12-20T08:08:29;3.60;;;2.70;;
36321;SDS011;23564;48.290;11.460;2023-12-20T08:10:55;4.05;;;2.60;;
36321;SDS011;23564;48.290;11.460;2023-12-20T08:13:24;4.60;;;2.78;;
36321;SDS011;23564;48.290;11.460;2023-12-20T08:15:51;3.50;;;2.20;;
36321;SDS011;23564;48.290;11.460;2023-12-20T08:18:17;4.38;;;2.65;;
36321;SDS011;23564;48.290;11.460;2023-12-20T08:20:42;4.25;;;2.95;;
36321;SDS011;23564;48.290;11.460;2023-12-20T08:23:08;4.15;;;2.53;;
36321;SDS011;23564;48.290;11.460;2023-12-20T08:25:33;3.22;;;2.20;;
36321;SDS011;23564;48.290;11.460;2023-12-20T08:27:59;6.60;;;2.53;;
36321;SDS011;23564;48.290;11.460;2023-12-20T08:30:24;3.90;;;2.22;;
36321;SDS011;23564;48.290;11.460;2023-12-20T08:32:50;4.05;;;2.47;;
36321;SDS011;23564;48.290;11.460;2023-12-20T08:35:16;4.55;;;2.50;;
36321;SDS011;23564;48.290;11.460;2023-12-20T08:37:42;4.20;;;2.30;;
36321;SDS011;23564;48.290;11.460;2023-12-20T08:40:08;5.25;;;2.22;;
36321;SDS011;23564;48.290;11.460;2023-12-20T08:42:34;3.55;;;2.22;;
36321;SDS011;23564;48.290;11.460;2023-12-20T08:45:00;3.78;;;2.13;;
36321;SDS011;23564;48.290;11.460;2023-12-20T08:47:25;3.03;;;2.05;;
36321;SDS011;23564;48.290;11.460;2023-12-20T08:49:51;2.40;;;1.90;;
36321;SDS011;23564;48.290;11.460;2023-12-20T08:52:21;3.83;;;2.30;;
36321;SDS011;23564;48.290;11.460;2023-12-20T08:54:48;3.38;;;2.05;;
36321;SDS011;23564;48.290;11.460;2023-12-20T08:57:13;4.47;;;2.45;;
36321;SDS011;23564;48.290;11.460;2023-12-20T08:59:39;3.60;;;2.33;;
36321;SDS011;23564;48.290;11.460;2023-12-20T09:02:04;3.60;;;2.15;;
36321;SDS011;23564;48.290;11.460;2023-12-20T09:04:30;5.07;;;2.58;;
36321;SDS011;23564;48.290;11.460;2023-12-20T09:06:55;2.38;;;1.98;;
36321;SDS011;23564;48.290;11.460;2023-12-20T09:09:21;3.30;;;2.10;;
36321;SDS011;23564;48.290;11.460;2023-12-20T09:11:47;3.53;;;2.40;;
36321;SDS011;23564;48.290;11.460;2023-12-20T09:14:15;3.72;;;2.78;;
36321;SDS011;23564;48.290;11.460;2023-12-20T09:16:40;4.32;;;2.50;;
36321;SDS011;23564;48.290;11.460;2023-12-20T09:19:06;3.40;;;2.40;;
36321;SDS011;23564;48.290;11.460;2023-12-20T09:21:31;3.42;;;2.22;;
36321;SDS011;23564;48.290;11.460;2023-12-20T09:23:57;3.95;;;2.60;;
36321;SDS011;23564;48.290;11.460;2023-12-20T09:26:22;4.55;;;2.58;;
36321;SDS011;23564;48.290;11.460;2023-12-20T09:28:48;3.05;;;2.30;;
36321;SDS011;23564;48.290;11.460;2023-12-20T09:31:14;5.40;;;2.78;;
36321;SDS011;23564;48.290;11.460;2023-12-20T09:33:39;4.13;;;2.65;;
36321;SDS011;23564;48.290;11.460;2023-12-20T09:36:05;3.22;;;2.78;;
36321;SDS011;23564;48.290;11.460;2023-12-20T09:38:30;4.10;;;2.63;;
36321;SDS011;23564;48.290;11.460;2023-12-20T09:40:56;4.68;;;2.88;;
36321;SDS011;23564;48.290;11.460;2023-12-20T09:43:23;3.28;;;2.63;;
36321;SDS011;23564;48.290;11.460;2023-12-20T09:45:52;3.53;;;2.42;;
36321;SDS011;23564;48.290;11.460;2023-12-20T09:48:19;3.50;;;2.38;;
36321;SDS011;23564;48.290;11.460;2023-12-20T09:50:45;3.95;;;2.70;;
36321;SDS011;23564;48.290;11.460;2023-12-20T09:53:14;4.30;;;2.53;;
36321;SDS011;23564;48.290;11.460;2023-12-20T09:55:41;3.08;;;2.30;;
36321;SDS011;23564;48.290;11.460;2023-12-20T09:58:07;4.35;;;2.40;;
36321;SDS011;23564;48.290;11.460;2023-12-20T10:00:34;3.95;;;2.67;;
36321;SDS011;23564;48.290;11.460;2023-12-20T10:03:00;3.83;;;2.30;;
36321;SDS011;23564;48.290;11.460;2023-12-20T10:05:30;4.00;;;2.78;;
36321;SDS011;23564;48.290;11.460;2023-12-20T10:07:57;3.78;;;2.58;;
36321;SDS011;23564;48.290;11.460;2023-12-20T10:10:23;4.30;;;2.70;;
36321;SDS011;23564;48.290;11.460;2023-12-20T10:13:05;6.95;;;3.00;;
36321;SDS011;23564;48.290;11.460;2023-12-20T10:15:32;6.43;;;3.05;;
36321;SDS011;23564;48.290;11.460;2023-12-20T10:17:58;5.63;;;3.30;;
36321;SDS011;23564;48.290;11.460;2023-12-20T10:20:24;5.53;;;3.33;;
36321;SDS011;23564;48.290;11.460;2023-12-20T10:22:51;6.30;;;3.40;;
36321;SDS011;23564;48.290;11.460;2023-12-20T10:25:18;4.22;;;2.63;;
36321;SDS011;23564;48.290;11.460;2023-12-20T10:27:44;4.70;;;2.78;;
36321;SDS011;23564;48.290;11.460;2023-12-20T10:30:10;4.07;;;2.22;;
36321;SDS011;23564;48.290;11.460;2023-12-20T10:32:36;4.18;;;2.72;;
36321;SDS011;23564;48.290;11.460;2023-12-20T10:35:01;4.05;;;2.72;;
36321;SDS011;23564;48.290;11.460;2023-12-20T10:37:27;3.70;;;2.85;;
36321;SDS011;23564;48.290;11.460;2023-12-20T10:39:53;6.50;;;3.33;;
36321;SDS011;23564;48.290;11.460;2023-12-20T10:42:23;4.63;;;2.63;;
36321;SDS011;23564;48.290;11.460;2023-12-20T10:44:51;5.13;;;2.47;;
36321;SDS011;23564;48.290;11.460;2023-12-20T10:47:18;3.53;;;2.47;;
36321;SDS011;23564;48.290;11.460;2023-12-20T10:49:44;4.40;;;2.60;;
36321;SDS011;23564;48.290;11.460;2023-12-20T10:52:11;5.25;;;2.22;;
36321;SDS011;23564;48.290;11.460;2023-12-20T10:54:37;4.97;;;2.47;;
36321;SDS011;23564;48.290;11.460;2023-12-20T10:57:06;9.23;;;2.40;;
36321;SDS011;23564;48.290;11.460;2023-12-20T10:59:38;4.82;;;2.38;;
36321;SDS011;23564;48.290;11.460;2023-12-20T11:02:06;3.25;;;2.00;;
36321;SDS011;23564;48.290;11.460;2023-12-20T11:07:35;4.20;;;2.70;;
36321;SDS011;23564;48.290;11.460;2023-12-20T11:12:53;4.28;;;2.85;;
36321;SDS011;23564;48.290;11.460;2023-12-20T11:15:23;3.90;;;2.58;;
36321;SDS011;23564;48.290;11.460;2023-12-20T11:17:56;3.60;;;2.63;;
36321;SDS011;23564;48.290;11.460;2023-12-20T11:20:34;3.92;;;2.40;;
36321;SDS011;23564;48.290;11.460;2023-12-20T11:23:04;4.75;;;2.47;;
36321;SDS011;23564;48.290;11.460;2023-12-20T11:25:34;2.85;;;1.90;;
36321;SDS011;23564;48.290;11.460;2023-12-20T11:28:16;3.60;;;2.50;;
36321;SDS011;23564;48.290;11.460;2023-12-20T11:33:15;3.08;;;1.95;;
36321;SDS011;23564;48.290;11.460;2023-12-20T11:35:41;4.43;;;2.20;;
36321;SDS011;23564;48.290;11.460;2023-12-20T11:38:08;3.08;;;2.15;;
36321;SDS011;23564;48.290;11.460;2023-12-20T11:40:35;3.17;;;2.15;;
36321;SDS011;23564;48.290;11.460;2023-12-20T11:43:02;4.80;;;1.90;;
36321;SDS011;23564;48.290;11.460;2023-12-20T11:45:28;2.42;;;1.90;;
36321;SDS011;23564;48.290;11.460;2023-12-20T11:47:54;2.75;;;1.83;;
36321;SDS011;23564;48.290;11.460;2023-12-20T11:50:22;2.72;;;1.70;;
36321;SDS011;23564;48.290;11.460;2023-12-20T11:52:48;3.55;;;2.47;;
36321;SDS011;23564;48.290;11.460;2023-12-20T11:55:15;3.70;;;3.10;;
36321;SDS011;23564;48.290;11.460;2023-12-20T11:57:41;5.38;;;2.50;;
36321;SDS011;23564;48.290;11.460;2023-12-20T12:00:07;2.00;;;1.40;;
36321;SDS011;23564;48.290;11.460;2023-12-20T12:02:33;7.78;;;2.20;;
36321;SDS011;23564;48.290;11.460;2023-12-20T12:04:59;2.20;;;1.55;;
36321;SDS011;23564;48.290;11.460;2023-12-20T12:07:25;1.95;;;1.70;;
36321;SDS011;23564;48.290;11.460;2023-12-20T12:09:50;2.28;;;1.80;;
36321;SDS011;23564;48.290;11.460;2023-12-20T12:12:16;1.98;;;1.63;;
36321;SDS011;23564;48.290;11.460;2023-12-20T12:14:44;1.60;;;1.27;;
36321;SDS011;23564;48.290;11.460;2023-12-20T12:17:13;2.38;;;1.48;;
36321;SDS011;23564;48.290;11.460;2023-12-20T12:19:39;3.03;;;2.03;;
36321;SDS011;23564;48.290;11.460;2023-12-20T12:22:06;2.72;;;2.15;;
36321;SDS011;23564;48.290;11.460;2023-12-20T12:27:08;3.50;;;2.13;;
36321;SDS011;23564;48.290;11.460;2023-12-20T12:29:35;2.95;;;1.73;;
36321;SDS011;23564;48.290;11.460;2023-12-20T12:32:01;2.88;;;1.95;;
36321;SDS011;23564;48.290;11.460;2023-12-20T12:34:31;5.18;;;2.05;;
36321;SDS011;23564;48.290;11.460;2023-12-20T12:36:57;3.28;;;1.80;;
36321;SDS011;23564;48.290;11.460;2023-12-20T12:39:23;2.78;;;2.10;;
36321;SDS011;23564;48.290;11.460;2023-12-20T12:41:50;2.70;;;1.90;;
36321;SDS011;23564;48.290;11.460;2023-12-20T12:44:16;23.70;;;9.95;;
36321;SDS011;23564;48.290;11.460;2023-12-20T12:46:42;3.60;;;2.28;;
36321;SDS011;23564;48.290;11.460;2023-12-20T12:49:09;3.17;;;2.40;;
36321;SDS011;23564;48.290;11.460;2023-12-20T12:51:34;2.40;;;1.80;;
36321;SDS011;23564;48.290;11.460;2023-12-20T12:54:00;2.50;;;2.00;;
36321;SDS011;23564;48.290;11.460;2023-12-20T12:56:26;4.07;;;2.10;;
36321;SDS011;23564;48.290;11.460;2023-12-20T12:58:51;5.00;;;1.95;;
36321;SDS011;23564;48.290;11.460;2023-12-20T13:01:17;3.88;;;1.75;;
36321;SDS011;23564;48.290;11.460;2023-12-20T13:03:42;2.97;;;1.75;;
36321;SDS011;23564;48.290;11.460;2023-12-20T13:06:08;4.57;;;1.95;;
36321;SDS011;23564;48.290;11.460;2023-12-20T13:08:34;2.13;;;1.50;;
36321;SDS011;23564;48.290;11.460;2023-12-20T13:11:00;2.83;;;1.90;;
36321;SDS011;23564;48.290;11.460;2023-12-20T13:13:28;4.32;;;1.75;;
36321;SDS011;23564;48.290;11.460;2023-12-20T13:15:54;3.83;;;1.80;;
36321;SDS011;23564;48.290;11.460;2023-12-20T13:18:20;5.63;;;1.70;;
36321;SDS011;23564;48.290;11.460;2023-12-20T13:20:47;5.10;;;1.77;;
36321;SDS011;23564;48.290;11.460;2023-12-20T13:23:13;4.55;;;1.85;;
36321;SDS011;23564;48.290;11.460;2023-12-20T13:25:39;4.28;;;1.73;;
36321;SDS011;23564;48.290;11.460;2023-12-20T13:28:05;4.90;;;2.25;;
36321;SDS011;23564;48.290;11.460;2023-12-20T13:30:31;4.13;;;1.42;;
36321;SDS011;23564;48.290;11.460;2023-12-20T13:32:56;8.70;;;2.10;;
36321;SDS011;23564;48.290;11.460;2023-12-20T13:35:22;4.95;;;1.58;;
36321;SDS011;23564;48.290;11.460;2023-12-20T13:37:47;6.68;;;3.10;;
36321;SDS011;23564;48.290;11.460;2023-12-20T13:40:13;6.57;;;1.92;;
36321;SDS011;23564;48.290;11.460;2023-12-20T13:42:39;10.27;;;1.60;;
36321;SDS011;23564;48.290;11.460;2023-12-20T13:45:05;4.63;;;2.20;;
36321;SDS011;23564;48.290;11.460;2023-12-20T13:47:32;6.75;;;1.52;;
36321;SDS011;23564;48.290;11.460;2023-12-20T13:49:57;5.30;;;1.58;;
36321;SDS011;23564;48.290;11.460;2023-12-20T13:52:23;10.50;;;2.20;;
36321;SDS011;23564;48.290;11.460;2023-12-20T13:54:49;4.00;;;1.52;;
36321;SDS011;23564;48.290;11.460;2023-12-20T13:57:14;2.25;;;1.38;;
36321;SDS011;23564;48.290;11.460;2023-12-20T13:59:40;5.95;;;1.45;;
36321;SDS011;23564;48.290;11.460;2023-12-20T14:02:06;4.65;;;1.50;;
36321;SDS011;23564;48.290;11.460;2023-12-20T14:04:31;5.70;;;1.40;;
36321;SDS011;23564;48.290;11.460;2023-12-20T14:06:57;7.55;;;2.03;;
36321;SDS011;23564;48.290;11.460;2023-12-20T14:09:23;6.68;;;2.47;;
36321;SDS011;23564;48.290;11.460;2023-12-20T14:11:48;3.47;;;1.30;;
36321;SDS011;23564;48.290;11.460;2023-12-20T14:14:14;6.00;;;1.90;;
36321;SDS011;23564;48.290;11.460;2023-12-20T14:16:39;3.85;;;1.23;;
36321;SDS011;23564;48.290;11.460;2023-12-20T14:19:06;5.28;;;2.45;;
36321;SDS011;23564;48.290;11.460;2023-12-20T14:21:34;4.68;;;1.52;;
36321;SDS011;23564;48.290;11.460;2023-12-20T14:23:59;6.57;;;1.60;;
36321;SDS011;23564;48.290;11.460;2023-12-20T14:26:25;6.30;;;1.80;;
36321;SDS011;23564;48.290;11.460;2023-12-20T14:28:52;6.25;;;1.60;;
36321;SDS011;23564;48.290;11.460;2023-12-20T14:31:18;4.47;;;1.60;;
36321;SDS011;23564;48.290;11.460;2023-12-20T14:33:44;8.10;;;1.38;;
36321;SDS011;23564;48.290;11.460;2023-12-20T14:36:11;5.22;;;1.63;;
36321;SDS011;23564;48.290;11.460;2023-12-20T14:38:36;3.90;;;1.58;;